createdAt,value
2018-12-14T00:02:25.332Z,13.95
2018-12-14T00:04:53.963Z,15.03
2018-12-14T00:07:22.713Z,14.25
2018-12-14T00:09:51.638Z,14.85
2018-12-14T00:12:20.219Z,14.93
2018-12-14T00:14:48.770Z,14.95
2018-12-14T00:17:17.489Z,14.95
2018-12-14T00:19:46.137Z,15.28
2018-12-14T00:22:14.637Z,15.70
2018-12-14T00:24:43.524Z,14.05
2018-12-14T00:27:12.690Z,14.93
2018-12-14T00:29:42.210Z,14.93
2018-12-14T00:32:10.899Z,15.40
2018-12-14T00:34:40.635Z,14.05
2018-12-14T00:37:09.462Z,14.15
2018-12-14T00:39:37.991Z,15.13
2018-12-14T00:42:06.650Z,14.87
2018-12-14T00:44:35.367Z,15.85
2018-12-14T00:47:04.638Z,15.20
2018-12-14T00:49:33.182Z,14.98
2018-12-14T00:52:01.879Z,15.68
2018-12-14T00:54:31.170Z,15.72
2018-12-14T00:57:00.202Z,15.78
2018-12-14T00:59:28.741Z,14.90
2018-12-14T01:01:57.953Z,15.15
2018-12-14T01:04:26.421Z,16.37
2018-12-14T01:06:55.122Z,14.80
2018-12-14T01:09:24.075Z,14.75
2018-12-14T01:11:58.096Z,14.93
2018-12-14T01:14:23.494Z,14.30
2018-12-14T01:16:52.017Z,15.40
2018-12-14T01:19:20.573Z,15.35
2018-12-14T01:21:49.123Z,15.98
2018-12-14T01:24:17.659Z,16.02
2018-12-14T01:26:46.321Z,15.68
2018-12-14T01:29:14.923Z,15.15
2018-12-14T01:31:43.667Z,16.37
2018-12-14T01:34:12.273Z,15.05
2018-12-14T01:36:40.863Z,15.38
2018-12-14T01:39:09.441Z,15.78
2018-12-14T01:41:38.005Z,15.75
2018-12-14T01:44:06.838Z,15.78
2018-12-14T01:46:36.065Z,15.48
2018-12-14T01:49:04.834Z,15.20
2018-12-14T01:51:33.511Z,15.05
2018-12-14T01:54:02.087Z,15.60
2018-12-14T01:56:31.222Z,14.40
2018-12-14T01:58:59.821Z,16.75
2018-12-14T02:01:28.876Z,15.43
2018-12-14T02:03:57.569Z,16.93
2018-12-14T02:06:26.886Z,16.20
2018-12-14T02:08:55.502Z,15.80
2018-12-14T02:11:24.016Z,15.15
2018-12-14T02:13:53.077Z,15.70
2018-12-14T02:16:21.745Z,16.20
2018-12-14T02:18:52.455Z,15.78
2018-12-14T02:21:21.258Z,16.97
2018-12-14T02:23:49.876Z,16.05
2018-12-14T02:26:18.602Z,17.07
2018-12-14T02:28:47.124Z,15.65
2018-12-14T02:31:15.863Z,16.05
2018-12-14T02:33:44.481Z,16.62
2018-12-14T02:36:13.760Z,15.48
2018-12-14T02:38:43.074Z,16.02
2018-12-14T02:41:12.288Z,16.35
2018-12-14T02:43:41.513Z,15.30
2018-12-14T02:46:10.373Z,16.35
2018-12-14T02:48:38.978Z,16.10
2018-12-14T02:51:07.680Z,16.32
2018-12-14T02:53:36.464Z,15.78
2018-12-14T02:56:05.160Z,15.43
2018-12-14T02:58:33.675Z,15.93
2018-12-14T03:01:02.301Z,16.02
2018-12-14T03:03:31.167Z,15.83
2018-12-14T03:05:59.729Z,15.43
2018-12-14T03:08:28.863Z,16.40
2018-12-14T03:10:58.086Z,15.15
2018-12-14T03:13:27.130Z,15.50
2018-12-14T03:15:56.786Z,15.50
2018-12-14T03:18:25.515Z,16.42
2018-12-14T03:20:54.199Z,15.65
2018-12-14T03:23:22.758Z,15.63
2018-12-14T03:25:51.798Z,14.65
2018-12-14T03:28:20.481Z,15.08
2018-12-14T03:30:49.021Z,14.85
2018-12-14T03:33:18.341Z,15.18
2018-12-14T03:35:47.212Z,14.38
2018-12-14T03:38:16.179Z,15.20
2018-12-14T03:40:45.694Z,15.78
2018-12-14T03:43:14.834Z,14.78
2018-12-14T03:45:43.461Z,14.78
2018-12-14T03:48:12.087Z,13.88
2018-12-14T03:50:41.660Z,14.90
2018-12-14T03:53:10.581Z,13.70
2018-12-14T03:55:39.157Z,15.15
2018-12-14T03:58:09.199Z,15.53
2018-12-14T04:00:38.119Z,14.55
2018-12-14T04:03:06.955Z,14.13
2018-12-14T04:05:35.814Z,14.45
2018-12-14T04:08:04.579Z,14.03
2018-12-14T04:10:33.432Z,14.07
2018-12-14T04:13:02.258Z,14.80
2018-12-14T04:15:31.477Z,14.33
2018-12-14T04:18:00.255Z,14.58
2018-12-14T04:20:29.352Z,13.93
2018-12-14T04:22:57.839Z,15.03
2018-12-14T04:25:26.687Z,14.23
2018-12-14T04:27:55.387Z,14.75
2018-12-14T04:30:23.884Z,13.78
2018-12-14T04:32:52.384Z,13.15
2018-12-14T04:35:21.909Z,14.00
2018-12-14T04:37:50.481Z,13.88
2018-12-14T04:40:19.166Z,13.78
2018-12-14T04:42:48.914Z,13.00
2018-12-14T04:45:17.801Z,13.95
2018-12-14T04:47:46.869Z,13.03
2018-12-14T04:50:15.449Z,13.22
2018-12-14T04:52:44.183Z,13.70
2018-12-14T04:55:13.197Z,13.65
2018-12-14T04:57:41.809Z,12.93
2018-12-14T05:00:10.796Z,13.22
2018-12-14T05:02:40.065Z,12.65
2018-12-14T05:05:08.794Z,13.55
2018-12-14T05:07:37.503Z,12.93
2018-12-14T05:10:06.955Z,13.53
2018-12-14T05:12:36.511Z,13.80
2018-12-14T05:15:05.642Z,14.23
2018-12-14T05:17:34.250Z,12.55
2018-12-14T05:20:02.893Z,13.08
2018-12-14T05:22:31.467Z,12.78
2018-12-14T05:25:00.605Z,13.03
2018-12-14T05:27:29.497Z,13.50
2018-12-14T05:29:58.388Z,13.53
2018-12-14T05:32:27.162Z,13.10
2018-12-14T05:34:55.804Z,13.28
2018-12-14T05:37:24.488Z,13.13
2018-12-14T05:39:53.780Z,13.00
2018-12-14T05:42:23.182Z,13.00
2018-12-14T05:44:52.131Z,12.78
2018-12-14T05:47:20.697Z,12.80
2018-12-14T05:49:49.281Z,14.10
2018-12-14T05:52:18.260Z,12.75
2018-12-14T05:54:48.080Z,13.10
2018-12-14T05:57:16.664Z,13.98
2018-12-14T05:59:45.507Z,13.62
2018-12-14T06:02:14.044Z,14.10
2018-12-14T06:04:42.572Z,14.38
2018-12-14T06:07:15.229Z,13.35
2018-12-14T06:09:43.919Z,14.03
2018-12-14T06:12:13.126Z,13.00
2018-12-14T06:14:45.629Z,13.25
2018-12-14T06:17:14.314Z,12.93
2018-12-14T06:19:43.022Z,13.08
2018-12-14T06:22:12.186Z,14.15
2018-12-14T06:24:41.013Z,12.60
2018-12-14T06:27:09.888Z,13.55
2018-12-14T06:29:40.087Z,14.03
2018-12-14T06:32:08.624Z,14.58
2018-12-14T06:34:37.080Z,14.13
2018-12-14T06:37:06.947Z,13.65
2018-12-14T06:39:35.826Z,14.28
2018-12-14T06:42:05.452Z,17.32
2018-12-14T06:44:34.003Z,17.15
2018-12-14T06:47:02.761Z,17.98
2018-12-14T06:49:31.432Z,15.40
2018-12-14T06:52:00.100Z,14.70
2018-12-14T06:54:28.715Z,14.28
2018-12-14T06:56:57.771Z,15.53
2018-12-14T06:59:26.514Z,14.25
2018-12-14T07:01:55.166Z,14.70
2018-12-14T07:04:23.747Z,13.22
2018-12-14T07:06:52.387Z,13.00
2018-12-14T07:09:22.249Z,13.08
2018-12-14T07:11:51.057Z,14.90
2018-12-14T07:14:20.231Z,15.30
2018-12-14T07:16:49.213Z,14.60
2018-12-14T07:19:18.549Z,15.10
2018-12-14T07:21:47.249Z,15.30
2018-12-14T07:24:15.872Z,15.80
2018-12-14T07:26:44.589Z,15.55
2018-12-14T07:29:13.658Z,14.98
2018-12-14T07:31:42.232Z,16.07
2018-12-14T07:34:10.769Z,15.85
2018-12-14T07:36:39.566Z,14.87
2018-12-14T07:39:08.151Z,16.42
2018-12-14T07:41:37.641Z,16.15
2018-12-14T07:44:06.231Z,14.50
2018-12-14T07:46:34.975Z,15.88
2018-12-14T07:49:03.656Z,15.55
2018-12-14T07:51:32.402Z,18.45
2018-12-14T07:54:00.993Z,15.05
2018-12-14T07:56:30.326Z,13.65
2018-12-14T07:58:59.429Z,13.60
2018-12-14T08:01:28.749Z,15.23
2018-12-14T08:03:57.469Z,18.65
2018-12-14T08:06:26.194Z,17.15
2018-12-14T08:08:54.864Z,15.93
2018-12-14T08:11:23.594Z,14.35
2018-12-14T08:13:52.875Z,14.68
2018-12-14T08:16:22.022Z,14.30
2018-12-14T08:18:50.606Z,15.20
2018-12-14T08:21:19.068Z,15.35
2018-12-14T08:23:47.732Z,13.93
2018-12-14T08:26:16.347Z,14.03
2018-12-14T08:28:44.997Z,14.18
2018-12-14T08:31:13.585Z,13.65
2018-12-14T08:33:42.370Z,13.08
2018-12-14T08:36:11.153Z,16.80
2018-12-14T08:38:43.438Z,17.37
2018-12-14T08:41:11.921Z,15.68
2018-12-14T08:43:41.617Z,16.42
2018-12-14T08:46:10.573Z,16.30
2018-12-14T08:48:39.162Z,14.47
2018-12-14T08:51:07.668Z,16.60
2018-12-14T08:53:36.751Z,15.75
2018-12-14T08:56:05.625Z,15.25
2018-12-14T08:58:34.250Z,14.18
2018-12-14T09:01:02.821Z,14.45
2018-12-14T09:03:32.008Z,13.55
2018-12-14T09:06:00.766Z,13.83
2018-12-14T09:08:29.401Z,15.00
2018-12-14T09:10:58.129Z,15.03
2018-12-14T09:13:27.472Z,14.10
2018-12-14T09:15:56.244Z,14.53
2018-12-14T09:18:24.930Z,15.20
2018-12-14T09:20:53.569Z,17.27
2018-12-14T09:23:22.399Z,15.03
2018-12-14T09:25:51.146Z,14.87
2018-12-14T09:28:19.841Z,14.83
2018-12-14T09:30:48.664Z,14.73
2018-12-14T09:33:17.557Z,14.80
2018-12-14T09:35:46.370Z,13.95
2018-12-14T09:38:14.955Z,14.33
2018-12-14T09:40:43.504Z,15.63
2018-12-14T09:43:12.039Z,15.75
2018-12-14T09:45:41.246Z,17.30
2018-12-14T09:48:09.882Z,14.75
2018-12-14T09:50:38.969Z,14.33
2018-12-14T09:53:07.694Z,13.80
2018-12-14T09:55:36.250Z,15.18
2018-12-14T09:58:05.904Z,17.23
2018-12-14T10:00:34.718Z,20.37
2018-12-14T10:03:03.229Z,18.07
2018-12-14T10:05:32.293Z,19.10
2018-12-14T10:08:01.232Z,15.15
2018-12-14T10:10:30.592Z,14.90
2018-12-14T10:12:59.495Z,16.05
2018-12-14T10:15:28.507Z,17.27
2018-12-14T10:17:57.056Z,17.02
2018-12-14T10:20:26.589Z,17.52
2018-12-14T10:22:56.010Z,15.95
2018-12-14T10:25:24.713Z,15.25
2018-12-14T10:27:53.351Z,17.17
2018-12-14T10:30:22.198Z,17.35
2018-12-14T10:32:50.987Z,16.80
2018-12-14T10:35:19.550Z,14.25
2018-12-14T10:37:48.033Z,15.55
2018-12-14T10:40:16.830Z,17.82
2018-12-14T10:42:45.624Z,15.93
2018-12-14T10:45:14.915Z,16.80
2018-12-14T10:47:44.259Z,15.75
2018-12-14T10:50:13.232Z,16.60
2018-12-14T10:52:41.822Z,16.40
2018-12-14T10:55:10.735Z,16.57
2018-12-14T10:57:39.705Z,15.80
2018-12-14T11:00:17.066Z,16.27
2018-12-14T11:02:45.877Z,15.65
2018-12-14T11:05:14.476Z,14.45
2018-12-14T11:07:43.090Z,14.40
2018-12-14T11:10:11.845Z,13.98
2018-12-14T11:12:40.471Z,14.50
2018-12-14T11:15:09.573Z,14.68
2018-12-14T11:17:38.571Z,15.55
2018-12-14T11:20:09.934Z,15.78
2018-12-14T11:22:39.023Z,16.62
2018-12-14T11:25:08.368Z,19.05
2018-12-14T11:27:37.243Z,18.67
2018-12-14T11:30:07.870Z,17.93
2018-12-14T11:32:36.714Z,15.30
2018-12-14T11:35:05.950Z,15.20
2018-12-14T11:37:35.372Z,16.10
2018-12-14T11:40:04.551Z,14.87
2018-12-14T11:42:33.903Z,14.87
2018-12-14T11:45:02.404Z,14.38
2018-12-14T11:47:31.365Z,14.58
2018-12-14T11:50:00.001Z,15.60
2018-12-14T11:52:29.793Z,15.23
2018-12-14T11:54:58.431Z,15.48
2018-12-14T11:57:27.310Z,14.63
2018-12-14T11:59:56.815Z,14.43
2018-12-14T12:02:25.476Z,14.63
2018-12-14T12:04:54.148Z,14.83
2018-12-14T12:07:22.901Z,13.28
2018-12-14T12:09:51.590Z,14.87
2018-12-14T12:12:20.675Z,14.70
2018-12-14T12:14:50.000Z,15.23
2018-12-14T12:17:18.977Z,14.93
2018-12-14T12:19:48.542Z,14.35
2018-12-14T12:22:17.075Z,13.93
2018-12-14T12:24:45.779Z,14.23
2018-12-14T12:27:14.865Z,14.93
2018-12-14T12:29:44.056Z,17.20
2018-12-14T12:32:12.914Z,16.87
2018-12-14T12:34:41.662Z,15.23
2018-12-14T12:37:10.203Z,15.45
2018-12-14T12:39:39.032Z,14.95
2018-12-14T12:42:07.717Z,15.30
2018-12-14T12:44:36.455Z,16.50
2018-12-14T12:47:05.919Z,16.40
2018-12-14T12:49:34.634Z,16.67
2018-12-14T12:52:03.489Z,15.85
2018-12-14T12:54:32.101Z,14.98
2018-12-14T12:57:01.667Z,15.88
2018-12-14T12:59:31.025Z,16.62
2018-12-14T13:02:00.732Z,16.75
2018-12-14T13:04:36.282Z,15.88
2018-12-14T13:07:05.149Z,17.27
2018-12-14T13:09:33.900Z,16.32
2018-12-14T13:12:02.574Z,15.45
2018-12-14T13:14:31.399Z,16.40
2018-12-14T13:17:00.594Z,16.07
2018-12-14T13:19:29.578Z,16.55
2018-12-14T13:21:58.186Z,15.53
2018-12-14T13:24:28.033Z,16.50
2018-12-14T13:26:56.738Z,15.90
2018-12-14T13:29:25.547Z,15.68
2018-12-14T13:31:54.356Z,19.82
2018-12-14T13:34:23.029Z,19.27
2018-12-14T13:36:52.381Z,16.37
2018-12-14T13:39:21.060Z,15.63
2018-12-14T13:41:50.087Z,14.93
2018-12-14T13:44:19.480Z,15.53
2018-12-14T13:46:48.313Z,16.00
2018-12-14T13:49:17.325Z,14.47
2018-12-14T13:51:46.158Z,15.55
2018-12-14T13:54:15.352Z,14.80
2018-12-14T13:56:44.107Z,14.93
2018-12-14T13:59:13.199Z,14.40
2018-12-14T14:01:41.913Z,14.85
2018-12-14T14:04:10.615Z,15.45
2018-12-14T14:06:39.734Z,15.23
2018-12-14T14:09:09.195Z,14.95
2018-12-14T14:11:38.454Z,14.90
2018-12-14T14:14:07.295Z,15.32
2018-12-14T14:16:35.811Z,14.28
2018-12-14T14:19:04.416Z,14.68
2018-12-14T14:21:33.002Z,14.83
2018-12-14T14:24:01.600Z,13.93
2018-12-14T14:26:30.409Z,14.65
2018-12-14T14:28:59.088Z,14.68
2018-12-14T14:34:17.536Z,16.32
2018-12-14T14:36:46.619Z,15.68
2018-12-14T14:39:16.043Z,15.23
2018-12-14T14:41:44.765Z,15.03
2018-12-14T14:44:13.885Z,16.27
2018-12-14T14:46:42.914Z,16.23
2018-12-14T14:49:11.785Z,18.32
2018-12-14T14:51:40.892Z,17.32
2018-12-14T14:54:09.770Z,17.65
2018-12-14T14:56:38.875Z,15.45
2018-12-14T14:59:08.344Z,15.45
2018-12-14T15:01:37.469Z,14.95
2018-12-14T15:04:06.465Z,14.90
2018-12-14T15:06:35.913Z,15.68
2018-12-14T15:09:07.116Z,15.98
2018-12-14T15:11:36.013Z,15.50
2018-12-14T15:14:04.857Z,15.58
2018-12-14T15:16:33.825Z,15.15
2018-12-14T15:19:02.744Z,15.10
2018-12-14T15:21:31.636Z,15.15
2018-12-14T15:24:01.672Z,16.20
2018-12-14T15:26:30.895Z,17.40
2018-12-14T15:29:00.254Z,18.05
2018-12-14T15:31:29.049Z,16.93
2018-12-14T15:33:58.313Z,15.70
2018-12-14T15:36:27.323Z,16.42
2018-12-14T15:38:55.997Z,15.55
2018-12-14T15:41:24.710Z,14.93
2018-12-14T15:43:53.556Z,14.68
2018-12-14T15:46:22.358Z,14.40
2018-12-14T15:48:50.955Z,13.98
2018-12-14T15:51:19.656Z,15.03
2018-12-14T15:53:48.351Z,14.68
2018-12-14T15:56:17.169Z,15.48
2018-12-14T15:58:45.816Z,16.37
2018-12-14T16:01:14.581Z,15.70
2018-12-14T16:03:43.403Z,16.42
2018-12-14T16:06:12.044Z,14.35
2018-12-14T16:08:40.925Z,14.05
2018-12-14T16:11:09.890Z,15.30
2018-12-14T16:13:39.259Z,15.48
2018-12-14T16:16:08.124Z,14.83
2018-12-14T16:18:37.149Z,14.00
2018-12-14T16:21:06.299Z,14.07
2018-12-14T16:23:36.196Z,13.68
2018-12-14T16:26:05.432Z,14.33
2018-12-14T16:28:34.538Z,14.38
2018-12-14T16:31:04.116Z,14.87
2018-12-14T16:33:33.123Z,14.38
2018-12-14T16:36:02.135Z,15.45
2018-12-14T16:38:31.342Z,15.18
2018-12-14T16:41:01.480Z,14.13
2018-12-14T16:43:30.908Z,14.75
2018-12-14T16:46:00.331Z,14.75
2018-12-14T16:48:30.383Z,14.45
2018-12-14T16:50:59.955Z,15.70
2018-12-14T16:53:31.572Z,17.37
2018-12-14T16:56:02.014Z,15.78
2018-12-14T16:58:31.235Z,18.95
2018-12-14T17:01:00.865Z,18.17
2018-12-14T17:03:30.322Z,17.20
2018-12-14T17:05:59.506Z,14.13
2018-12-14T17:08:28.789Z,16.62
2018-12-14T17:10:58.317Z,17.92
2018-12-14T17:13:27.615Z,17.35
2018-12-14T17:15:57.080Z,15.90
2018-12-14T17:18:25.696Z,14.90
2018-12-14T17:20:54.802Z,14.90
2018-12-14T17:23:24.232Z,17.80
2018-12-14T17:25:53.138Z,18.80
2018-12-14T17:28:22.010Z,17.20
2018-12-14T17:30:51.316Z,17.35
2018-12-14T17:33:20.029Z,16.60
2018-12-14T17:35:48.927Z,17.92
2018-12-14T17:38:17.579Z,16.80
2018-12-14T17:40:46.511Z,14.58
2018-12-14T17:43:15.182Z,14.58
2018-12-14T17:45:43.885Z,15.05
2018-12-14T17:48:12.529Z,14.73
2018-12-14T17:50:41.368Z,15.48
2018-12-14T17:53:10.489Z,16.37
2018-12-14T17:55:39.113Z,15.45
2018-12-14T17:58:07.726Z,20.57
2018-12-14T18:00:36.892Z,43.40
2018-12-14T18:03:05.813Z,32.42
2018-12-14T18:05:34.404Z,24.63
2018-12-14T18:08:03.284Z,20.80
2018-12-14T18:10:32.198Z,16.60
2018-12-14T18:13:00.842Z,15.95
2018-12-14T18:15:30.287Z,16.80
2018-12-14T18:17:58.992Z,16.15
2018-12-14T18:20:27.758Z,15.25
2018-12-14T18:22:56.623Z,16.42
2018-12-14T18:25:25.701Z,17.48
2018-12-14T18:27:54.453Z,17.15
2018-12-14T18:30:23.417Z,17.55
2018-12-14T18:32:52.159Z,16.75
2018-12-14T18:35:20.960Z,17.48
2018-12-14T18:37:49.813Z,16.70
2018-12-14T18:40:19.020Z,15.00
2018-12-14T18:42:49.231Z,15.88
2018-12-14T18:45:20.037Z,17.10
2018-12-14T18:47:50.346Z,30.45
2018-12-14T18:50:25.873Z,23.77
2018-12-14T18:52:56.239Z,18.95
2018-12-14T18:55:26.190Z,16.90
2018-12-14T18:58:01.868Z,16.00
2018-12-14T19:00:31.650Z,16.37
2018-12-14T19:03:01.355Z,20.50
2018-12-14T19:05:31.004Z,17.67
2018-12-14T19:08:00.537Z,19.05
2018-12-14T19:10:30.387Z,20.95
2018-12-14T19:13:03.726Z,22.48
2018-12-14T19:15:32.813Z,19.55
2018-12-14T19:18:02.120Z,18.05
2018-12-14T19:20:32.342Z,17.17
2018-12-14T19:23:01.563Z,18.00
2018-12-14T19:25:31.255Z,17.07
2018-12-14T19:28:00.546Z,17.12
2018-12-14T19:30:29.828Z,17.90
2018-12-14T19:32:59.580Z,17.65
2018-12-14T19:35:28.544Z,19.20
2018-12-14T19:37:58.782Z,19.40
2018-12-14T19:40:27.873Z,18.57
2018-12-14T19:42:57.126Z,17.05
2018-12-14T19:45:25.962Z,18.98
2018-12-14T19:47:54.761Z,18.07
2018-12-14T19:50:23.549Z,20.62
2018-12-14T19:52:53.123Z,18.02
2018-12-14T19:55:22.657Z,18.15
2018-12-14T19:57:52.008Z,18.48
2018-12-14T20:00:21.302Z,17.90
2018-12-14T20:02:50.473Z,17.00
2018-12-14T20:05:19.490Z,18.92
2018-12-14T20:07:48.282Z,18.35
2018-12-14T20:10:17.571Z,17.75
2018-12-14T20:12:46.595Z,18.07
2018-12-14T20:15:15.659Z,16.73
2018-12-14T20:17:44.472Z,16.75
2018-12-14T20:20:13.576Z,20.52
2018-12-14T20:22:42.530Z,19.42
2018-12-14T20:25:11.638Z,18.42
2018-12-14T20:27:41.273Z,18.17
2018-12-14T20:30:10.529Z,17.45
2018-12-14T20:32:39.352Z,18.67
2018-12-14T20:35:08.764Z,32.08
2018-12-14T20:37:37.507Z,34.48
2018-12-14T20:40:07.006Z,22.17
2018-12-14T20:42:35.852Z,18.05
2018-12-14T20:45:05.099Z,20.20
2018-12-14T20:47:34.000Z,27.40
2018-12-14T20:50:03.024Z,18.35
2018-12-14T20:52:31.918Z,19.35
2018-12-14T20:55:00.669Z,25.37
2018-12-14T20:57:30.104Z,21.80
2018-12-14T20:59:58.902Z,23.57
2018-12-14T21:02:28.068Z,22.65
2018-12-14T21:04:57.543Z,29.42
2018-12-14T21:07:27.400Z,27.45
2018-12-14T21:09:56.936Z,20.60
2018-12-14T21:12:25.932Z,23.12
2018-12-14T21:14:55.499Z,20.80
2018-12-14T21:17:24.320Z,20.80
2018-12-14T21:19:52.981Z,18.90
2018-12-14T21:22:21.684Z,18.27
2018-12-14T21:24:50.581Z,16.75
2018-12-14T21:27:19.626Z,18.52
2018-12-14T21:29:48.802Z,17.50
2018-12-14T21:32:17.674Z,18.12
2018-12-14T21:34:46.418Z,18.02
2018-12-14T21:37:15.338Z,18.35
2018-12-14T21:39:45.162Z,19.32
2018-12-14T21:42:15.303Z,17.82
2018-12-14T21:44:44.153Z,17.92
2018-12-14T21:47:12.780Z,17.27
2018-12-14T21:49:42.146Z,17.37
2018-12-14T21:52:11.033Z,18.15
2018-12-14T21:54:39.661Z,17.45
2018-12-14T21:57:08.420Z,19.98
2018-12-14T21:59:37.102Z,22.67
2018-12-14T22:02:07.123Z,19.10
2018-12-14T22:04:35.806Z,18.77
2018-12-14T22:07:04.656Z,19.92
2018-12-14T22:09:34.556Z,23.18
2018-12-14T22:12:03.301Z,22.37
2018-12-14T22:14:32.182Z,21.40
2018-12-14T22:17:00.811Z,22.48
2018-12-14T22:19:29.454Z,21.95
2018-12-14T22:21:58.059Z,22.52
2018-12-14T22:24:26.818Z,17.73
2018-12-14T22:26:55.435Z,20.45
2018-12-14T22:29:24.146Z,20.52
2018-12-14T22:31:53.491Z,18.75
2018-12-14T22:34:22.164Z,19.52
2018-12-14T22:36:50.764Z,19.07
2018-12-14T22:39:20.133Z,19.12
2018-12-14T22:41:48.918Z,18.23
2018-12-14T22:44:21.544Z,18.10
2018-12-14T22:46:49.871Z,18.05
2018-12-14T22:49:18.747Z,19.30
2018-12-14T22:51:48.310Z,19.57
2018-12-14T22:54:17.070Z,17.60
2018-12-14T22:56:45.743Z,16.62
2018-12-14T22:59:14.343Z,17.90
2018-12-14T23:01:43.311Z,17.95
2018-12-14T23:04:12.436Z,19.07
2018-12-14T23:06:41.108Z,20.15
2018-12-14T23:09:09.832Z,18.45
2018-12-14T23:11:39.330Z,19.15
2018-12-14T23:14:07.880Z,18.52
2018-12-14T23:16:36.623Z,18.55
2018-12-14T23:19:05.152Z,17.52
2018-12-14T23:21:34.032Z,19.95
2018-12-14T23:24:02.600Z,17.15
2018-12-14T23:26:31.162Z,18.02
2018-12-14T23:28:59.711Z,24.27
2018-12-14T23:31:28.225Z,21.65
2018-12-14T23:33:56.837Z,21.82
2018-12-14T23:36:25.424Z,20.10
2018-12-14T23:38:54.003Z,18.35
2018-12-14T23:41:22.929Z,17.87
2018-12-14T23:43:51.563Z,17.82
2018-12-14T23:46:20.300Z,16.52
2018-12-14T23:48:49.541Z,17.73
2018-12-14T23:51:18.185Z,16.95
2018-12-14T23:53:46.841Z,17.85
2018-12-14T23:56:15.824Z,18.17
2018-12-14T23:58:45.726Z,19.30
